sensor_id;sensor_type;location;lat;lon;timestamp;pressure;altitude;pressure_sealevel;temperature;humidity
49709;BME280;35601;55.902;13.606;2023-01-24T00:01:28;103194.10;;;-2.42;63.48
49709;BME280;35601;55.902;13.606;2023-01-24T00:03:54;103190.37;;;-2.24;62.11
49709;BME280;35601;55.902;13.606;2023-01-24T00:06:19;103185.24;;;-1.91;61.56
49709;BME280;35601;55.902;13.606;2023-01-24T00:08:44;103183.02;;;-2.16;62.07
49709;BME280;35601;55.902;13.606;2023-01-24T00:11:11;103180.85;;;-1.77;61.88
49709;BME280;35601;55.902;13.606;2023-01-24T00:13:36;103183.48;;;-1.70;61.80
49709;BME280;35601;55.902;13.606;2023-01-24T00:16:03;103185.30;;;-1.84;61.87
49709;BME280;35601;55.902;13.606;2023-01-24T00:18:26;103189.34;;;-1.54;61.95
49709;BME280;35601;55.902;13.606;2023-01-24T00:20:51;103190.16;;;-2.03;62.38
49709;BME280;35601;55.902;13.606;2023-01-24T00:23:17;103188.72;;;-1.69;62.34
49709;BME280;35601;55.902;13.606;2023-01-24T00:25:42;103189.16;;;-1.43;62.22
49709;BME280;35601;55.902;13.606;2023-01-24T00:28:08;103192.86;;;-1.91;62.40
49709;BME280;35601;55.902;13.606;2023-01-24T00:30:33;103192.92;;;-1.61;63.01
49709;BME280;35601;55.902;13.606;2023-01-24T00:32:58;103195.94;;;-1.96;63.22
49709;BME280;35601;55.902;13.606;2023-01-24T00:35:24;103197.28;;;-1.90;63.24
49709;BME280;35601;55.902;13.606;2023-01-24T00:37:49;103194.90;;;-2.11;63.81
49709;BME280;35601;55.902;13.606;2023-01-24T00:40:15;103192.04;;;-1.78;63.44
49709;BME280;35601;55.902;13.606;2023-01-24T00:42:40;103188.59;;;-1.90;63.14
49709;BME280;35601;55.902;13.606;2023-01-24T00:45:07;103194.07;;;-1.82;62.78
49709;BME280;35601;55.902;13.606;2023-01-24T00:47:31;103197.12;;;-1.73;62.52
49709;BME280;35601;55.902;13.606;2023-01-24T00:49:56;103201.01;;;-1.76;62.38
49709;BME280;35601;55.902;13.606;2023-01-24T00:52:22;103202.48;;;-2.10;62.25
49709;BME280;35601;55.902;13.606;2023-01-24T00:54:47;103205.50;;;-1.71;61.99
49709;BME280;35601;55.902;13.606;2023-01-24T00:57:13;103211.84;;;-2.09;62.14
49709;BME280;35601;55.902;13.606;2023-01-24T00:59:38;103215.86;;;-1.75;61.87
49709;BME280;35601;55.902;13.606;2023-01-24T01:02:03;103217.73;;;-1.73;62.25
49709;BME280;35601;55.902;13.606;2023-01-24T01:04:28;103213.37;;;-1.71;62.47
49709;BME280;35601;55.902;13.606;2023-01-24T01:06:54;103205.26;;;-1.91;62.31
49709;BME280;35601;55.902;13.606;2023-01-24T01:09:19;103200.06;;;-1.88;62.19
49709;BME280;35601;55.902;13.606;2023-01-24T01:11:45;103196.88;;;-1.53;62.13
49709;BME280;35601;55.902;13.606;2023-01-24T01:14:10;103194.18;;;-1.44;61.90
49709;BME280;35601;55.902;13.606;2023-01-24T01:16:35;103190.53;;;-1.71;62.01
49709;BME280;35601;55.902;13.606;2023-01-24T01:19:01;103185.55;;;-1.80;61.88
49709;BME280;35601;55.902;13.606;2023-01-24T01:21:26;103181.17;;;-1.84;61.30
49709;BME280;35601;55.902;13.606;2023-01-24T01:23:51;103179.35;;;-1.81;61.58
49709;BME280;35601;55.902;13.606;2023-01-24T01:26:19;103171.80;;;-1.92;62.08
49709;BME280;35601;55.902;13.606;2023-01-24T01:28:42;103165.80;;;-1.55;62.06
49709;BME280;35601;55.902;13.606;2023-01-24T01:31:07;103163.03;;;-1.66;62.92
49709;BME280;35601;55.902;13.606;2023-01-24T01:33:32;103163.44;;;-1.71;62.62
49709;BME280;35601;55.902;13.606;2023-01-24T01:35:58;103163.38;;;-1.78;62.73
49709;BME280;35601;55.902;13.606;2023-01-24T01:38:23;103171.77;;;-1.82;63.49
49709;BME280;35601;55.902;13.606;2023-01-24T01:40:48;103175.44;;;-1.88;63.36
49709;BME280;35601;55.902;13.606;2023-01-24T01:43:16;103181.66;;;-1.89;63.33
49709;BME280;35601;55.902;13.606;2023-01-24T01:45:41;103181.73;;;-1.94;63.47
49709;BME280;35601;55.902;13.606;2023-01-24T01:48:12;103180.39;;;-2.02;63.38
49709;BME280;35601;55.902;13.606;2023-01-24T01:50:32;103184.68;;;-2.10;64.11
49709;BME280;35601;55.902;13.606;2023-01-24T01:52:54;103186.42;;;-1.95;63.57
49709;BME280;35601;55.902;13.606;2023-01-24T01:55:24;103185.79;;;-1.78;63.27
49709;BME280;35601;55.902;13.606;2023-01-24T01:57:45;103183.27;;;-1.65;63.25
49709;BME280;35601;55.902;13.606;2023-01-24T02:00:13;103183.05;;;-1.78;64.09
49709;BME280;35601;55.902;13.606;2023-01-24T02:02:36;103178.56;;;-2.03;64.05
49709;BME280;35601;55.902;13.606;2023-01-24T02:05:04;103170.86;;;-1.74;63.68
49709;BME280;35601;55.902;13.606;2023-01-24T02:07:29;103165.11;;;-1.76;63.34
49709;BME280;35601;55.902;13.606;2023-01-24T02:09:53;103164.06;;;-1.62;63.08
49709;BME280;35601;55.902;13.606;2023-01-24T02:12:19;103164.73;;;-1.72;63.04
49709;BME280;35601;55.902;13.606;2023-01-24T02:14:43;103164.43;;;-1.68;62.96
49709;BME280;35601;55.902;13.606;2023-01-24T02:17:07;103159.75;;;-1.92;63.38
49709;BME280;35601;55.902;13.606;2023-01-24T02:19:45;103153.13;;;-1.52;62.95
49709;BME280;35601;55.902;13.606;2023-01-24T02:22:06;103147.31;;;-1.84;62.47
49709;BME280;35601;55.902;13.606;2023-01-24T02:24:26;103149.06;;;-1.79;62.46
49709;BME280;35601;55.902;13.606;2023-01-24T02:26:48;103148.27;;;-1.84;62.46
49709;BME280;35601;55.902;13.606;2023-01-24T02:29:15;103148.73;;;-1.71;62.28
49709;BME280;35601;55.902;13.606;2023-01-24T02:31:52;103151.12;;;-1.58;62.66
49709;BME280;35601;55.902;13.606;2023-01-24T02:34:03;103152.48;;;-1.49;62.53
49709;BME280;35601;55.902;13.606;2023-01-24T02:36:32;103152.13;;;-1.98;62.44
49709;BME280;35601;55.902;13.606;2023-01-24T02:39:00;103149.54;;;-1.84;62.81
49709;BME280;35601;55.902;13.606;2023-01-24T02:41:28;103146.95;;;-1.83;62.96
49709;BME280;35601;55.902;13.606;2023-01-24T02:43:47;103149.37;;;-1.83;62.70
49709;BME280;35601;55.902;13.606;2023-01-24T02:46:11;103151.49;;;-1.75;63.00
49709;BME280;35601;55.902;13.606;2023-01-24T02:48:36;103156.96;;;-1.73;62.95
49709;BME280;35601;55.902;13.606;2023-01-24T02:51:02;103157.40;;;-1.79;63.12
49709;BME280;35601;55.902;13.606;2023-01-24T02:53:27;103154.81;;;-1.85;63.18
49709;BME280;35601;55.902;13.606;2023-01-24T02:55:52;103154.18;;;-1.93;63.44
49709;BME280;35601;55.902;13.606;2023-01-24T02:58:18;103155.13;;;-1.78;63.34
49709;BME280;35601;55.902;13.606;2023-01-24T03:00:43;103150.12;;;-1.73;63.39
49709;BME280;35601;55.902;13.606;2023-01-24T03:03:09;103149.03;;;-1.70;63.21
49709;BME280;35601;55.902;13.606;2023-01-24T03:05:34;103150.68;;;-1.97;63.48
49709;BME280;35601;55.902;13.606;2023-01-24T03:07:58;103145.13;;;-1.63;63.40
49709;BME280;35601;55.902;13.606;2023-01-24T03:10:24;103142.61;;;-1.59;63.41
49709;BME280;35601;55.902;13.606;2023-01-24T03:12:49;103145.08;;;-1.64;63.57
49709;BME280;35601;55.902;13.606;2023-01-24T03:15:15;103144.32;;;-1.68;63.56
49709;BME280;35601;55.902;13.606;2023-01-24T03:17:40;103144.10;;;-2.07;63.64
49709;BME280;35601;55.902;13.606;2023-01-24T03:20:06;103141.01;;;-1.68;64.17
49709;BME280;35601;55.902;13.606;2023-01-24T03:22:31;103134.85;;;-1.52;64.20
49709;BME280;35601;55.902;13.606;2023-01-24T03:24:56;103138.88;;;-1.91;64.18
49709;BME280;35601;55.902;13.606;2023-01-24T03:27:22;103143.06;;;-1.62;64.29
49709;BME280;35601;55.902;13.606;2023-01-24T03:29:48;103145.92;;;-1.37;63.97
49709;BME280;35601;55.902;13.606;2023-01-24T03:32:13;103145.38;;;-1.60;63.88
49709;BME280;35601;55.902;13.606;2023-01-24T03:34:38;103143.00;;;-1.67;64.11
49709;BME280;35601;55.902;13.606;2023-01-24T03:37:04;103140.45;;;-1.91;64.33
49709;BME280;35601;55.902;13.606;2023-01-24T03:39:29;103140.10;;;-1.37;64.37
49709;BME280;35601;55.902;13.606;2023-01-24T03:41:54;103136.95;;;-1.77;64.36
49709;BME280;35601;55.902;13.606;2023-01-24T03:44:19;103135.28;;;-1.60;63.66
49709;BME280;35601;55.902;13.606;2023-01-24T03:46:45;103138.63;;;-1.65;63.82
49709;BME280;35601;55.902;13.606;2023-01-24T03:49:10;103143.40;;;-1.82;64.77
49709;BME280;35601;55.902;13.606;2023-01-24T03:51:36;103147.81;;;-1.63;64.42
49709;BME280;35601;55.902;13.606;2023-01-24T03:54:01;103150.59;;;-1.66;64.61
49709;BME280;35601;55.902;13.606;2023-01-24T03:56:27;103148.56;;;-1.80;64.60
49709;BME280;35601;55.902;13.606;2023-01-24T03:58:52;103150.98;;;-1.57;64.43
49709;BME280;35601;55.902;13.606;2023-01-24T04:01:17;103151.54;;;-1.57;64.29
49709;BME280;35601;55.902;13.606;2023-01-24T04:03:43;103143.10;;;-1.73;64.64
49709;BME280;35601;55.902;13.606;2023-01-24T04:06:08;103146.23;;;-1.74;64.63
49709;BME280;35601;55.902;13.606;2023-01-24T04:08:34;103145.43;;;-1.61;64.94
49709;BME280;35601;55.902;13.606;2023-01-24T04:10:59;103148.88;;;-2.10;65.18
49709;BME280;35601;55.902;13.606;2023-01-24T04:13:24;103150.10;;;-1.88;65.71
49709;BME280;35601;55.902;13.606;2023-01-24T04:15:49;103146.11;;;-2.14;66.01
49709;BME280;35601;55.902;13.606;2023-01-24T04:18:15;103146.17;;;-1.95;65.98
49709;BME280;35601;55.902;13.606;2023-01-24T04:20:40;103141.27;;;-2.06;65.80
49709;BME280;35601;55.902;13.606;2023-01-24T04:23:07;103146.78;;;-2.10;65.93
49709;BME280;35601;55.902;13.606;2023-01-24T04:25:32;103143.25;;;-2.08;66.06
49709;BME280;35601;55.902;13.606;2023-01-24T04:27:58;103140.54;;;-1.70;65.70
49709;BME280;35601;55.902;13.606;2023-01-24T04:30:23;103139.47;;;-1.86;65.63
49709;BME280;35601;55.902;13.606;2023-01-24T04:32:48;103145.70;;;-1.59;65.24
49709;BME280;35601;55.902;13.606;2023-01-24T04:35:16;103145.66;;;-1.81;65.58
49709;BME280;35601;55.902;13.606;2023-01-24T04:37:39;103144.30;;;-1.79;65.36
49709;BME280;35601;55.902;13.606;2023-01-24T04:40:06;103140.40;;;-1.83;65.25
49709;BME280;35601;55.902;13.606;2023-01-24T04:42:30;103137.39;;;-1.79;65.16
49709;BME280;35601;55.902;13.606;2023-01-24T04:44:56;103138.41;;;-1.97;65.59
49709;BME280;35601;55.902;13.606;2023-01-24T04:47:21;103140.92;;;-2.00;66.03
49709;BME280;35601;55.902;13.606;2023-01-24T04:49:46;103142.07;;;-1.91;65.57
49709;BME280;35601;55.902;13.606;2023-01-24T04:52:12;103141.89;;;-1.97;65.90
49709;BME280;35601;55.902;13.606;2023-01-24T04:54:36;103142.91;;;-1.74;66.03
49709;BME280;35601;55.902;13.606;2023-01-24T04:57:02;103140.48;;;-1.92;65.69
49709;BME280;35601;55.902;13.606;2023-01-24T04:59:27;103133.36;;;-2.06;66.02
49709;BME280;35601;55.902;13.606;2023-01-24T05:01:52;103131.08;;;-2.36;66.15
49709;BME280;35601;55.902;13.606;2023-01-24T05:04:18;103130.05;;;-2.24;66.27
49709;BME280;35601;55.902;13.606;2023-01-24T05:06:43;103126.19;;;-2.33;66.71
49709;BME280;35601;55.902;13.606;2023-01-24T05:09:09;103118.42;;;-2.02;66.80
49709;BME280;35601;55.902;13.606;2023-01-24T05:11:35;103114.44;;;-2.25;67.09
49709;BME280;35601;55.902;13.606;2023-01-24T05:14:00;103109.33;;;-2.23;67.46
49709;BME280;35601;55.902;13.606;2023-01-24T05:16:25;103108.40;;;-2.31;67.42
49709;BME280;35601;55.902;13.606;2023-01-24T05:18:50;103108.74;;;-2.16;66.94
49709;BME280;35601;55.902;13.606;2023-01-24T05:21:17;103108.77;;;-1.86;66.67
49709;BME280;35601;55.902;13.606;2023-01-24T05:23:41;103112.24;;;-2.09;66.85
49709;BME280;35601;55.902;13.606;2023-01-24T05:26:06;103117.92;;;-2.33;66.64
49709;BME280;35601;55.902;13.606;2023-01-24T05:28:31;103123.88;;;-2.10;66.47
49709;BME280;35601;55.902;13.606;2023-01-24T05:30:58;103130.21;;;-2.01;66.48
49709;BME280;35601;55.902;13.606;2023-01-24T05:33:22;103134.56;;;-2.06;66.72
49709;BME280;35601;55.902;13.606;2023-01-24T05:35:48;103139.36;;;-2.75;66.65
49709;BME280;35601;55.902;13.606;2023-01-24T05:38:13;103140.46;;;-2.29;66.77
49709;BME280;35601;55.902;13.606;2023-01-24T05:40:38;103139.54;;;-2.30;66.66
49709;BME280;35601;55.902;13.606;2023-01-24T05:43:06;103139.12;;;-2.10;66.89
49709;BME280;35601;55.902;13.606;2023-01-24T05:45:29;103142.95;;;-2.16;66.96
49709;BME280;35601;55.902;13.606;2023-01-24T05:47:55;103142.13;;;-2.21;67.51
49709;BME280;35601;55.902;13.606;2023-01-24T05:50:19;103149.20;;;-2.27;67.88
49709;BME280;35601;55.902;13.606;2023-01-24T05:52:45;103153.71;;;-2.32;68.09
49709;BME280;35601;55.902;13.606;2023-01-24T05:55:10;103152.04;;;-2.13;67.89
49709;BME280;35601;55.902;13.606;2023-01-24T05:57:36;103150.36;;;-2.31;67.76
49709;BME280;35601;55.902;13.606;2023-01-24T06:00:02;103147.23;;;-2.30;68.18
49709;BME280;35601;55.902;13.606;2023-01-24T06:02:27;103146.35;;;-2.26;67.93
49709;BME280;35601;55.902;13.606;2023-01-24T06:04:52;103142.19;;;-2.27;67.99
49709;BME280;35601;55.902;13.606;2023-01-24T06:07:17;103139.04;;;-2.27;68.22
49709;BME280;35601;55.902;13.606;2023-01-24T06:09:42;103134.44;;;-2.20;68.46
49709;BME280;35601;55.902;13.606;2023-01-24T06:12:07;103130.34;;;-2.24;68.60
49709;BME280;35601;55.902;13.606;2023-01-24T06:14:32;103138.97;;;-2.03;69.05
49709;BME280;35601;55.902;13.606;2023-01-24T06:16:58;103139.92;;;-2.09;69.28
49709;BME280;35601;55.902;13.606;2023-01-24T06:19:23;103144.46;;;-2.31;69.23
49709;BME280;35601;55.902;13.606;2023-01-24T06:21:54;103147.63;;;-2.31;69.39
49709;BME280;35601;55.902;13.606;2023-01-24T06:24:17;103151.07;;;-2.00;69.56
49709;BME280;35601;55.902;13.606;2023-01-24T06:26:40;103154.78;;;-2.06;69.55
49709;BME280;35601;55.902;13.606;2023-01-24T06:29:05;103156.26;;;-2.21;69.19
49709;BME280;35601;55.902;13.606;2023-01-24T06:31:33;103162.66;;;-2.31;69.40
49709;BME280;35601;55.902;13.606;2023-01-24T06:34:07;103167.83;;;-2.11;69.75
49709;BME280;35601;55.902;13.606;2023-01-24T06:36:30;103171.98;;;-2.28;69.65
49709;BME280;35601;55.902;13.606;2023-01-24T06:38:47;103171.47;;;-2.35;69.47
49709;BME280;35601;55.902;13.606;2023-01-24T06:41:15;103175.27;;;-2.21;69.69
49709;BME280;35601;55.902;13.606;2023-01-24T06:43:37;103182.13;;;-2.51;69.90
49709;BME280;35601;55.902;13.606;2023-01-24T06:46:02;103179.96;;;-2.22;70.05
49709;BME280;35601;55.902;13.606;2023-01-24T06:48:27;103176.18;;;-1.84;69.79
49709;BME280;35601;55.902;13.606;2023-01-24T06:50:53;103175.02;;;-2.09;69.92
49709;BME280;35601;55.902;13.606;2023-01-24T06:53:18;103175.37;;;-2.45;70.12
49709;BME280;35601;55.902;13.606;2023-01-24T06:55:45;103173.55;;;-2.13;69.99
49709;BME280;35601;55.902;13.606;2023-01-24T06:58:09;103177.83;;;-1.99;69.95
49709;BME280;35601;55.902;13.606;2023-01-24T07:00:34;103179.26;;;-2.03;70.06
49709;BME280;35601;55.902;13.606;2023-01-24T07:02:59;103176.14;;;-2.11;69.77
49709;BME280;35601;55.902;13.606;2023-01-24T07:05:25;103177.93;;;-2.24;69.49
49709;BME280;35601;55.902;13.606;2023-01-24T07:07:50;103182.30;;;-2.43;69.06
49709;BME280;35601;55.902;13.606;2023-01-24T07:10:16;103180.18;;;-2.26;68.57
49709;BME280;35601;55.902;13.606;2023-01-24T07:12:41;103183.92;;;-2.01;68.55
49709;BME280;35601;55.902;13.606;2023-01-24T07:15:06;103186.26;;;-2.33;68.11
49709;BME280;35601;55.902;13.606;2023-01-24T07:17:32;103186.82;;;-2.05;67.94
49709;BME280;35601;55.902;13.606;2023-01-24T07:19:57;103188.16;;;-1.96;67.95
49709;BME280;35601;55.902;13.606;2023-01-24T07:22:23;103189.97;;;-2.17;67.62
49709;BME280;35601;55.902;13.606;2023-01-24T07:24:48;103196.90;;;-2.26;67.27
49709;BME280;35601;55.902;13.606;2023-01-24T07:27:13;103205.40;;;-2.18;67.56
49709;BME280;35601;55.902;13.606;2023-01-24T07:29:38;103212.29;;;-2.25;67.64
49709;BME280;35601;55.902;13.606;2023-01-24T07:32:03;103210.83;;;-2.61;67.98
49709;BME280;35601;55.902;13.606;2023-01-24T07:34:28;103208.17;;;-2.39;68.14
49709;BME280;35601;55.902;13.606;2023-01-24T07:36:53;103202.72;;;-2.46;68.44
49709;BME280;35601;55.902;13.606;2023-01-24T07:39:19;103207.53;;;-2.47;68.54
49709;BME280;35601;55.902;13.606;2023-01-24T07:41:44;103209.22;;;-2.35;68.29
49709;BME280;35601;55.902;13.606;2023-01-24T07:44:10;103209.10;;;-2.30;68.27
49709;BME280;35601;55.902;13.606;2023-01-24T07:46:36;103200.84;;;-2.56;68.17
49709;BME280;35601;55.902;13.606;2023-01-24T07:49:01;103194.01;;;-2.54;68.39
49709;BME280;35601;55.902;13.606;2023-01-24T07:51:26;103189.54;;;-2.22;67.89
49709;BME280;35601;55.902;13.606;2023-01-24T07:53:51;103188.25;;;-2.02;68.03
49709;BME280;35601;55.902;13.606;2023-01-24T07:56:16;103179.76;;;-2.31;68.07
49709;BME280;35601;55.902;13.606;2023-01-24T07:58:42;103178.47;;;-2.02;68.09
49709;BME280;35601;55.902;13.606;2023-01-24T08:01:07;103179.41;;;-2.20;68.12
49709;BME280;35601;55.902;13.606;2023-01-24T08:03:32;103179.45;;;-2.29;67.96
49709;BME280;35601;55.902;13.606;2023-01-24T08:05:58;103178.10;;;-2.07;68.18
49709;BME280;35601;55.902;13.606;2023-01-24T08:08:23;103176.06;;;-2.34;68.64
49709;BME280;35601;55.902;13.606;2023-01-24T08:10:48;103175.18;;;-2.00;68.46
49709;BME280;35601;55.902;13.606;2023-01-24T08:13:14;103170.89;;;-2.01;68.34
49709;BME280;35601;55.902;13.606;2023-01-24T08:15:39;103174.04;;;-2.34;67.74
49709;BME280;35601;55.902;13.606;2023-01-24T08:18:04;103173.33;;;-2.05;68.10
49709;BME280;35601;55.902;13.606;2023-01-24T08:20:30;103170.61;;;-2.19;67.91
49709;BME280;35601;55.902;13.606;2023-01-24T08:22:55;103168.98;;;-2.17;68.32
49709;BME280;35601;55.902;13.606;2023-01-24T08:25:20;103171.58;;;-1.84;68.47
49709;BME280;35601;55.902;13.606;2023-01-24T08:27:45;103168.13;;;-2.23;68.31
49709;BME280;35601;55.902;13.606;2023-01-24T08:30:11;103168.21;;;-2.06;68.06
49709;BME280;35601;55.902;13.606;2023-01-24T08:32:36;103170.66;;;-2.00;67.78
49709;BME280;35601;55.902;13.606;2023-01-24T08:35:01;103174.64;;;-2.11;67.80
49709;BME280;35601;55.902;13.606;2023-01-24T08:37:27;103175.73;;;-1.75;67.55
49709;BME280;35601;55.902;13.606;2023-01-24T08:39:52;103186.25;;;-2.03;67.43
49709;BME280;35601;55.902;13.606;2023-01-24T08:42:17;103196.38;;;-1.79;67.54
49709;BME280;35601;55.902;13.606;2023-01-24T08:44:43;103205.56;;;-1.96;67.60
49709;BME280;35601;55.902;13.606;2023-01-24T08:47:08;103209.43;;;-1.66;67.44
49709;BME280;35601;55.902;13.606;2023-01-24T08:49:33;103210.43;;;-1.89;67.38
49709;BME280;35601;55.902;13.606;2023-01-24T08:51:59;103226.15;;;-1.82;67.28
49709;BME280;35601;55.902;13.606;2023-01-24T08:54:24;103231.31;;;-1.85;67.40
49709;BME280;35601;55.902;13.606;2023-01-24T08:56:49;103230.75;;;-1.87;67.43
49709;BME280;35601;55.902;13.606;2023-01-24T08:59:14;103226.66;;;-1.78;67.45
49709;BME280;35601;55.902;13.606;2023-01-24T09:01:40;103223.04;;;-1.80;67.77
49709;BME280;35601;55.902;13.606;2023-01-24T09:04:05;103216.83;;;-1.56;67.96
49709;BME280;35601;55.902;13.606;2023-01-24T09:06:30;103219.83;;;-1.85;67.17
49709;BME280;35601;55.902;13.606;2023-01-24T09:08:55;103225.33;;;-1.84;67.23
49709;BME280;35601;55.902;13.606;2023-01-24T09:11:21;103226.17;;;-1.81;67.16
49709;BME280;35601;55.902;13.606;2023-01-24T09:13:46;103223.31;;;-1.85;67.08
49709;BME280;35601;55.902;13.606;2023-01-24T09:16:12;103221.71;;;-1.53;67.26
49709;BME280;35601;55.902;13.606;2023-01-24T09:18:38;103214.97;;;-1.83;67.33
49709;BME280;35601;55.902;13.606;2023-01-24T09:21:03;103211.92;;;-1.80;67.74
49709;BME280;35601;55.902;13.606;2023-01-24T09:23:29;103208.52;;;-1.45;67.31
49709;BME280;35601;55.902;13.606;2023-01-24T09:25:53;103211.94;;;-1.45;67.71
49709;BME280;35601;55.902;13.606;2023-01-24T09:28:19;103211.56;;;-1.68;67.46
49709;BME280;35601;55.902;13.606;2023-01-24T09:30:44;103202.69;;;-1.67;68.03
49709;BME280;35601;55.902;13.606;2023-01-24T09:33:09;103197.75;;;-1.74;67.98
49709;BME280;35601;55.902;13.606;2023-01-24T09:35:35;103194.34;;;-1.77;68.25
49709;BME280;35601;55.902;13.606;2023-01-24T09:38:00;103194.81;;;-1.24;67.84
49709;BME280;35601;55.902;13.606;2023-01-24T09:40:28;103190.77;;;-1.31;68.08
49709;BME280;35601;55.902;13.606;2023-01-24T09:42:59;103192.59;;;-1.58;68.85
49709;BME280;35601;55.902;13.606;2023-01-24T09:45:20;103193.42;;;-1.37;68.35
49709;BME280;35601;55.902;13.606;2023-01-24T09:47:44;103194.14;;;-1.52;68.00
49709;BME280;35601;55.902;13.606;2023-01-24T09:50:14;103192.58;;;-1.23;67.81
49709;BME280;35601;55.902;13.606;2023-01-24T09:52:35;103195.98;;;-1.32;67.95
49709;BME280;35601;55.902;13.606;2023-01-24T09:55:02;103198.62;;;-1.22;67.44
49709;BME280;35601;55.902;13.606;2023-01-24T09:57:26;103193.82;;;-1.07;67.45
49709;BME280;35601;55.902;13.606;2023-01-24T09:59:48;103191.40;;;-1.18;66.79
49709;BME280;35601;55.902;13.606;2023-01-24T10:02:16;103184.28;;;-1.40;66.79
49709;BME280;35601;55.902;13.606;2023-01-24T10:04:38;103179.23;;;-1.25;67.22
49709;BME280;35601;55.902;13.606;2023-01-24T10:07:18;103182.76;;;-1.45;67.64
49709;BME280;35601;55.902;13.606;2023-01-24T10:09:36;103179.92;;;-1.40;67.92
49709;BME280;35601;55.902;13.606;2023-01-24T10:12:00;103173.16;;;-1.66;67.87
49709;BME280;35601;55.902;13.606;2023-01-24T10:14:30;103173.05;;;-1.46;68.43
49709;BME280;35601;55.902;13.606;2023-01-24T10:17:04;103170.78;;;-1.72;68.55
49709;BME280;35601;55.902;13.606;2023-01-24T10:19:18;103167.90;;;-1.39;68.38
49709;BME280;35601;55.902;13.606;2023-01-24T10:21:55;103169.09;;;-1.58;68.23
49709;BME280;35601;55.902;13.606;2023-01-24T10:24:03;103163.01;;;-1.55;68.24
49709;BME280;35601;55.902;13.606;2023-01-24T10:26:32;103159.84;;;-1.53;68.00
49709;BME280;35601;55.902;13.606;2023-01-24T10:28:52;103154.18;;;-1.39;68.41
49709;BME280;35601;55.902;13.606;2023-01-24T10:31:21;103151.62;;;-1.40;68.77
49709;BME280;35601;55.902;13.606;2023-01-24T10:33:44;103146.83;;;-1.34;68.87
49709;BME280;35601;55.902;13.606;2023-01-24T10:36:12;103142.22;;;-1.36;68.34
49709;BME280;35601;55.902;13.606;2023-01-24T10:38:33;103134.14;;;-1.32;69.91
49709;BME280;35601;55.902;13.606;2023-01-24T10:41:13;103134.22;;;-1.24;69.26
49709;BME280;35601;55.902;13.606;2023-01-24T10:43:25;103127.31;;;-1.23;68.39
49709;BME280;35601;55.902;13.606;2023-01-24T10:46:00;103122.53;;;-1.36;69.02
49709;BME280;35601;55.902;13.606;2023-01-24T10:48:24;103122.94;;;-1.04;68.98
49709;BME280;35601;55.902;13.606;2023-01-24T10:50:41;103120.23;;;-1.10;68.89
49709;BME280;35601;55.902;13.606;2023-01-24T10:53:13;103122.38;;;-0.92;68.42
49709;BME280;35601;55.902;13.606;2023-01-24T10:55:32;103126.12;;;-1.28;68.37
49709;BME280;35601;55.902;13.606;2023-01-24T10:57:55;103122.48;;;-1.19;68.11
49709;BME280;35601;55.902;13.606;2023-01-24T11:00:30;103119.74;;;-1.18;68.11
49709;BME280;35601;55.902;13.606;2023-01-24T11:02:48;103115.18;;;-1.12;68.54
49709;BME280;35601;55.902;13.606;2023-01-24T11:05:13;103111.24;;;-1.29;69.27
49709;BME280;35601;55.902;13.606;2023-01-24T11:07:36;103114.68;;;-1.16;69.14
49709;BME280;35601;55.902;13.606;2023-01-24T11:10:10;103120.46;;;-1.13;68.70
49709;BME280;35601;55.902;13.606;2023-01-24T11:12:27;103126.26;;;-1.13;68.23
49709;BME280;35601;55.902;13.606;2023-01-24T11:14:52;103126.97;;;-1.21;68.50
49709;BME280;35601;55.902;13.606;2023-01-24T11:17:29;103129.74;;;-1.06;68.20
49709;BME280;35601;55.902;13.606;2023-01-24T11:19:42;103136.31;;;-0.82;67.95
49709;BME280;35601;55.902;13.606;2023-01-24T11:22:19;103136.37;;;-0.78;67.79
49709;BME280;35601;55.902;13.606;2023-01-24T11:24:41;103135.24;;;-0.94;67.78
49709;BME280;35601;55.902;13.606;2023-01-24T11:27:04;103142.07;;;-0.87;67.72
49709;BME280;35601;55.902;13.606;2023-01-24T11:29:24;103144.49;;;-0.91;67.63
49709;BME280;35601;55.902;13.606;2023-01-24T11:31:52;103141.08;;;-0.71;67.77
49709;BME280;35601;55.902;13.606;2023-01-24T11:36:43;103141.13;;;-1.10;67.90
49709;BME280;35601;55.902;13.606;2023-01-24T11:39:13;103134.06;;;-0.99;67.83
49709;BME280;35601;55.902;13.606;2023-01-24T11:41:36;103132.38;;;-0.70;67.30
49709;BME280;35601;55.902;13.606;2023-01-24T11:46:37;103137.26;;;-0.78;67.28
49709;BME280;35601;55.902;13.606;2023-01-24T11:48:52;103135.25;;;-0.49;67.85
49709;BME280;35601;55.902;13.606;2023-01-24T11:51:15;103131.48;;;-0.75;66.84
49709;BME280;35601;55.902;13.606;2023-01-24T11:53:50;103132.89;;;-0.91;67.41
49709;BME280;35601;55.902;13.606;2023-01-24T11:56:11;103132.31;;;-0.88;67.20
49709;BME280;35601;55.902;13.606;2023-01-24T11:58:43;103127.38;;;-0.87;67.63
49709;BME280;35601;55.902;13.606;2023-01-24T12:01:01;103121.13;;;-0.60;67.29
49709;BME280;35601;55.902;13.606;2023-01-24T12:03:33;103115.80;;;-0.67;66.87
49709;BME280;35601;55.902;13.606;2023-01-24T12:05:56;103113.28;;;-0.74;66.99
49709;BME280;35601;55.902;13.606;2023-01-24T12:08:23;103113.14;;;-0.60;66.94
49709;BME280;35601;55.902;13.606;2023-01-24T12:10:46;103106.44;;;-0.63;66.64
49709;BME280;35601;55.902;13.606;2023-01-24T12:13:05;103106.10;;;-0.73;66.53
49709;BME280;35601;55.902;13.606;2023-01-24T12:15:36;103099.05;;;-0.65;66.90
49709;BME280;35601;55.902;13.606;2023-01-24T12:18:04;103093.10;;;-0.68;67.13
49709;BME280;35601;55.902;13.606;2023-01-24T12:20:30;103088.50;;;-0.73;67.00
49709;BME280;35601;55.902;13.606;2023-01-24T12:22:44;103084.07;;;-0.51;67.23
49709;BME280;35601;55.902;13.606;2023-01-24T12:25:16;103083.79;;;-0.79;67.54
49709;BME280;35601;55.902;13.606;2023-01-24T12:27:35;103084.18;;;-0.78;66.90
49709;BME280;35601;55.902;13.606;2023-01-24T12:30:04;103078.29;;;-0.66;67.04
49709;BME280;35601;55.902;13.606;2023-01-24T12:32:31;103079.93;;;-0.76;66.96
49709;BME280;35601;55.902;13.606;2023-01-24T12:34:55;103077.81;;;-0.53;66.71